createdAt,value
2019-04-24T00:01:09.398Z,99.90
2019-04-24T00:04:00.705Z,99.90
2019-04-24T00:08:45.890Z,99.90
2019-04-24T00:11:32.393Z,99.90
2019-04-24T00:14:14.844Z,99.90
2019-04-24T00:16:44.542Z,99.90
2019-04-24T00:19:14.301Z,99.90
2019-04-24T00:21:48.008Z,99.90
2019-04-24T00:26:47.570Z,99.90
2019-04-24T00:29:21.006Z,99.90
2019-04-24T00:31:48.477Z,99.90
2019-04-24T00:34:26.391Z,99.90
2019-04-24T00:42:01.934Z,99.90
2019-04-24T00:51:51.674Z,99.90
2019-04-24T00:57:00.444Z,99.90
2019-04-24T00:59:28.118Z,99.90
2019-04-24T01:02:12.580Z,99.90
2019-04-24T01:12:51.143Z,99.90
2019-04-24T01:15:19.136Z,99.90
2019-04-24T01:23:02.400Z,99.90
2019-04-24T01:33:08.745Z,99.90
2019-04-24T01:35:53.225Z,99.90
2019-04-24T01:40:52.536Z,99.90
2019-04-24T01:45:54.264Z,99.90
2019-04-24T01:48:25.122Z,99.90
2019-04-24T01:55:51.095Z,99.90
2019-04-24T01:58:26.610Z,99.90
2019-04-24T02:03:31.275Z,99.90
2019-04-24T02:06:12.963Z,99.90
2019-04-24T02:08:33.959Z,99.90
2019-04-24T02:11:25.076Z,99.90
2019-04-24T02:16:08.021Z,99.90
2019-04-24T02:18:38.324Z,99.90
2019-04-24T02:21:13.110Z,99.90
2019-04-24T02:23:41.323Z,99.90
2019-04-24T02:28:45.846Z,99.90
2019-04-24T02:31:23.093Z,99.90
2019-04-24T02:39:43.039Z,99.90
2019-04-24T02:47:05.803Z,99.90
2019-04-24T02:52:05.273Z,99.90
2019-04-24T02:54:54.922Z,99.90
2019-04-24T02:57:22.658Z,99.90
2019-04-24T03:04:40.039Z,99.90
2019-04-24T03:12:50.580Z,99.90
2019-04-24T03:15:02.739Z,99.90
2019-04-24T03:25:14.806Z,99.90
2019-04-24T03:45:36.841Z,99.90
2019-04-24T03:48:07.296Z,99.90
2019-04-24T03:51:10.566Z,99.90
2019-04-24T03:55:49.620Z,99.90
2019-04-24T04:05:31.233Z,99.90
2019-04-24T04:08:38.026Z,99.90
2019-04-24T04:15:47.560Z,99.90
2019-04-24T04:18:34.483Z,99.90
2019-04-24T04:29:00.817Z,99.90
2019-04-24T04:31:38.242Z,99.90
2019-04-24T04:39:14.321Z,99.90
2019-04-24T04:52:07.141Z,99.90
2019-04-24T05:02:29.619Z,99.90
2019-04-24T05:17:48.009Z,99.90
2019-04-24T05:19:49.450Z,99.90
2019-04-24T05:25:01.415Z,99.90
2019-04-24T05:30:09.239Z,99.90
2019-04-24T05:33:05.027Z,99.90
2019-04-24T05:35:29.915Z,99.90
2019-04-24T05:37:53.405Z,99.90
2019-04-24T05:42:56.939Z,99.90
2019-04-24T05:45:26.279Z,99.90
2019-04-24T05:51:10.983Z,99.90
2019-04-24T06:04:08.805Z,99.90
2019-04-24T06:06:41.189Z,99.90
2019-04-24T06:09:06.100Z,99.90
2019-04-24T06:13:57.326Z,99.90
2019-04-24T06:19:34.282Z,99.90
2019-04-24T06:22:01.819Z,99.90
2019-04-24T06:27:01.963Z,99.90
2019-04-24T06:34:40.802Z,99.90
2019-04-24T06:37:27.447Z,99.90
2019-04-24T06:40:07.446Z,99.90
2019-04-24T06:42:11.863Z,99.90
2019-04-24T06:45:05.909Z,99.90
2019-04-24T06:47:48.484Z,99.90
2019-04-24T06:49:43.032Z,99.90
2019-04-24T06:54:48.619Z,99.90
2019-04-24T06:57:23.056Z,99.90
2019-04-24T06:59:54.080Z,99.90
2019-04-24T07:05:27.186Z,99.90
2019-04-24T07:10:48.815Z,99.90
2019-04-24T07:16:04.613Z,99.90
2019-04-24T07:18:34.440Z,99.90
2019-04-24T07:23:38.872Z,99.90
2019-04-24T07:26:06.597Z,99.90
2019-04-24T07:28:44.329Z,99.90
2019-04-24T07:31:43.021Z,99.90
2019-04-24T07:34:08.737Z,99.90
2019-04-24T07:36:44.668Z,99.90
2019-04-24T07:39:03.234Z,99.90
2019-04-24T07:41:45.993Z,99.90
2019-04-24T07:44:20.268Z,99.90
2019-04-24T07:51:54.808Z,99.90
2019-04-24T08:04:52.041Z,99.90
2019-04-24T08:07:26.649Z,99.90
2019-04-24T08:15:13.938Z,99.90
2019-04-24T08:17:39.309Z,99.90
2019-04-24T08:22:33.224Z,99.90
2019-04-24T08:25:07.085Z,99.90
2019-04-24T08:27:41.603Z,99.90
2019-04-24T08:30:00.485Z,99.90
2019-04-24T08:32:33.133Z,99.90
2019-04-24T08:35:20.211Z,99.90
2019-04-24T08:40:23.512Z,99.90
2019-04-24T08:43:10.048Z,99.90
2019-04-24T08:45:35.490Z,99.90
2019-04-24T08:53:12.426Z,99.90
2019-04-24T09:03:31.652Z,99.90
2019-04-24T09:08:28.821Z,99.90
2019-04-24T09:11:29.594Z,99.90
2019-04-24T09:14:19.912Z,99.50
2019-04-24T09:21:30.627Z,97.10
2019-04-24T09:24:34.282Z,96.80
2019-04-24T09:26:59.004Z,96.20
2019-04-24T09:34:11.340Z,95.30
2019-04-24T09:37:04.880Z,94.80
2019-04-24T09:40:06.612Z,95.10
2019-04-24T09:47:23.972Z,94.30
2019-04-24T09:49:50.770Z,94.40
2019-04-24T09:57:44.927Z,93.60
2019-04-24T10:00:06.893Z,93.60
2019-04-24T10:07:50.914Z,93.00
2019-04-24T10:15:32.529Z,93.00
2019-04-24T10:20:31.816Z,93.40
2019-04-24T10:23:24.575Z,92.40
2019-04-24T10:25:52.177Z,92.20
2019-04-24T10:29:11.542Z,92.10
2019-04-24T10:31:17.061Z,92.50
2019-04-24T10:34:05.768Z,92.20
2019-04-24T10:37:01.224Z,91.80
2019-04-24T10:39:55.097Z,91.80
2019-04-24T10:44:46.070Z,91.40
2019-04-24T10:49:54.659Z,89.90
2019-04-24T10:52:11.648Z,89.90
2019-04-24T10:54:51.157Z,87.90
2019-04-24T10:57:26.760Z,88.10
2019-04-24T11:05:15.927Z,86.00
2019-04-24T11:08:03.993Z,82.70
2019-04-24T11:15:49.195Z,80.50
2019-04-24T11:18:20.636Z,78.70
2019-04-24T11:21:14.466Z,79.30
2019-04-24T11:23:27.270Z,77.90
2019-04-24T11:31:25.570Z,77.30
2019-04-24T11:39:09.653Z,70.80
2019-04-24T11:44:12.482Z,71.10
2019-04-24T11:49:29.606Z,69.70
2019-04-24T11:52:22.104Z,67.90
2019-04-24T11:57:58.790Z,65.70
2019-04-24T11:59:51.009Z,65.80
2019-04-24T12:02:45.784Z,65.40
2019-04-24T12:10:43.449Z,65.40
2019-04-24T12:13:32.237Z,65.40
2019-04-24T12:16:27.904Z,64.90
2019-04-24T12:26:37.248Z,63.90
2019-04-24T12:29:19.031Z,65.10
2019-04-24T12:31:53.205Z,63.20
2019-04-24T12:34:20.389Z,64.50
2019-04-24T12:37:03.352Z,64.70
2019-04-24T12:39:22.219Z,64.70
2019-04-24T12:42:02.207Z,63.90
2019-04-24T12:47:24.950Z,63.70
2019-04-24T12:49:43.174Z,63.00
2019-04-24T12:52:03.824Z,63.50
2019-04-24T12:54:38.199Z,65.00
2019-04-24T12:59:45.922Z,66.50
2019-04-24T13:02:12.976Z,60.90
2019-04-24T13:07:15.422Z,59.70
2019-04-24T13:10:05.726Z,59.10
2019-04-24T13:12:52.231Z,59.90
2019-04-24T13:18:08.313Z,59.90
2019-04-24T13:20:10.133Z,61.40
2019-04-24T13:22:44.929Z,60.90
2019-04-24T13:25:56.584Z,61.30
2019-04-24T13:28:51.514Z,62.50
2019-04-24T13:31:37.184Z,62.10
2019-04-24T13:34:03.713Z,62.80
2019-04-24T13:36:41.501Z,62.60
2019-04-24T13:41:25.905Z,62.10
2019-04-24T13:46:18.573Z,63.30
2019-04-24T13:49:04.121Z,62.60
2019-04-24T13:51:37.630Z,62.00
2019-04-24T13:54:14.737Z,62.60
2019-04-24T13:56:42.396Z,62.80
2019-04-24T13:59:07.702Z,64.50
2019-04-24T14:12:37.716Z,63.80
2019-04-24T14:16:42.621Z,65.80
2019-04-24T14:21:55.810Z,63.40
2019-04-24T14:27:01.192Z,64.60
2019-04-24T14:29:29.963Z,65.70
2019-04-24T14:39:28.954Z,66.80
2019-04-24T14:44:45.119Z,65.80
2019-04-24T14:47:13.751Z,65.00
2019-04-24T14:52:19.053Z,64.80
2019-04-24T14:54:42.906Z,65.90
2019-04-24T14:57:16.521Z,64.20
2019-04-24T14:59:57.342Z,63.00
2019-04-24T15:02:17.595Z,62.50
2019-04-24T15:04:53.550Z,64.00
2019-04-24T15:07:20.037Z,63.50
2019-04-24T15:09:56.719Z,63.70
2019-04-24T15:14:59.525Z,62.90
2019-04-24T15:22:27.980Z,63.30
2019-04-24T15:25:17.384Z,64.30
2019-04-24T15:27:35.118Z,64.60
2019-04-24T15:32:31.767Z,65.90
2019-04-24T15:35:15.242Z,72.30
2019-04-24T15:37:33.162Z,80.00
2019-04-24T15:40:35.369Z,78.10
2019-04-24T15:42:40.851Z,80.80
2019-04-24T15:50:06.970Z,82.80
2019-04-24T15:52:06.618Z,82.50
2019-04-24T15:54:36.001Z,87.10
2019-04-24T15:57:04.879Z,84.90
2019-04-24T16:00:02.671Z,89.00
2019-04-24T16:02:39.227Z,88.50
2019-04-24T16:04:54.825Z,84.70
2019-04-24T16:07:15.327Z,86.30
2019-04-24T16:09:45.678Z,89.30
2019-04-24T16:12:15.067Z,88.60
2019-04-24T16:15:03.788Z,90.40
2019-04-24T16:17:52.216Z,87.90
2019-04-24T16:22:44.390Z,87.30
2019-04-24T16:25:31.463Z,85.60
2019-04-24T16:30:12.533Z,86.60
2019-04-24T16:33:00.891Z,87.60
2019-04-24T16:40:45.158Z,91.40
2019-04-24T16:45:45.220Z,85.00
2019-04-24T16:48:26.419Z,84.90
2019-04-24T16:50:48.569Z,87.10
2019-04-24T16:58:10.322Z,92.20
2019-04-24T17:00:46.650Z,93.40
2019-04-24T17:05:39.141Z,92.50
2019-04-24T17:10:48.930Z,92.50
2019-04-24T17:13:14.322Z,95.40
2019-04-24T17:15:54.649Z,99.50
2019-04-24T17:21:27.672Z,99.90
2019-04-24T17:26:08.214Z,99.90
2019-04-24T17:31:16.571Z,99.90
2019-04-24T17:33:30.909Z,99.90
2019-04-24T17:36:06.763Z,99.90
2019-04-24T17:38:12.457Z,99.90
2019-04-24T17:40:42.941Z,99.90
2019-04-24T17:43:44.711Z,99.90
2019-04-24T17:46:14.859Z,99.90
2019-04-24T17:48:50.368Z,99.90
2019-04-24T17:53:45.812Z,99.90
2019-04-24T17:56:18.400Z,99.90
2019-04-24T17:58:25.937Z,99.90
2019-04-24T18:00:54.981Z,99.90
2019-04-24T18:03:27.819Z,99.90
2019-04-24T18:05:57.614Z,99.90
2019-04-24T18:08:26.066Z,99.90
2019-04-24T18:10:56.051Z,99.90
2019-04-24T18:13:24.556Z,99.90
2019-04-24T18:15:54.379Z,99.90
2019-04-24T18:18:24.375Z,99.90
2019-04-24T18:20:53.698Z,99.90
2019-04-24T18:23:26.219Z,99.90
2019-04-24T18:26:12.422Z,99.90
2019-04-24T18:28:41.520Z,99.90
2019-04-24T18:31:13.124Z,99.90
2019-04-24T18:33:42.407Z,99.90
2019-04-24T18:36:11.727Z,99.90
2019-04-24T18:38:40.283Z,99.90
2019-04-24T18:41:08.934Z,99.90
2019-04-24T18:43:37.663Z,99.90
2019-04-24T18:46:07.530Z,99.90
2019-04-24T18:48:38.812Z,99.90
2019-04-24T18:51:07.485Z,99.90
2019-04-24T18:53:36.295Z,99.90
2019-04-24T18:56:05.638Z,99.90
2019-04-24T18:58:34.949Z,99.90
2019-04-24T19:01:04.404Z,99.90
2019-04-24T19:03:33.232Z,99.90
2019-04-24T19:06:02.387Z,99.90
2019-04-24T19:08:31.295Z,99.90
2019-04-24T19:11:01.539Z,99.90
2019-04-24T19:13:32.168Z,99.90
2019-04-24T19:16:02.004Z,99.90
2019-04-24T19:18:33.520Z,99.90
2019-04-24T19:21:01.967Z,99.90
2019-04-24T19:23:31.585Z,99.90
2019-04-24T19:26:01.270Z,99.90
2019-04-24T19:28:29.903Z,99.90
2019-04-24T19:30:58.620Z,99.90
2019-04-24T19:33:27.432Z,99.90
2019-04-24T19:35:58.782Z,99.90
2019-04-24T19:38:27.574Z,99.90
2019-04-24T19:40:56.059Z,99.90
2019-04-24T19:43:24.750Z,99.90
2019-04-24T19:45:53.516Z,99.90
2019-04-24T19:48:24.502Z,99.90
2019-04-24T19:50:52.165Z,99.90
2019-04-24T19:53:24.838Z,99.90
2019-04-24T19:55:52.285Z,99.90
2019-04-24T19:58:21.962Z,99.90
2019-04-24T20:00:52.813Z,99.90
2019-04-24T20:03:22.586Z,99.90
2019-04-24T20:05:53.541Z,99.90
2019-04-24T20:08:26.179Z,99.90
2019-04-24T20:10:53.982Z,99.90
2019-04-24T20:13:23.434Z,99.90
2019-04-24T20:15:52.291Z,99.90
2019-04-24T20:18:22.367Z,99.90
2019-04-24T20:20:51.376Z,99.90
2019-04-24T20:23:30.947Z,99.90
2019-04-24T20:25:50.974Z,99.90
2019-04-24T20:28:21.563Z,99.90
2019-04-24T20:30:51.687Z,99.90
2019-04-24T20:33:21.845Z,99.90
2019-04-24T20:35:50.860Z,99.90
2019-04-24T20:38:19.422Z,99.90
2019-04-24T20:40:47.860Z,99.90
2019-04-24T20:43:17.247Z,99.90
2019-04-24T20:45:46.934Z,99.90
2019-04-24T20:48:16.614Z,99.90
2019-04-24T20:50:45.529Z,99.90
2019-04-24T20:53:14.094Z,99.90
2019-04-24T20:55:42.714Z,99.90
2019-04-24T20:58:14.058Z,99.90
2019-04-24T21:00:42.616Z,99.90
2019-04-24T21:03:11.400Z,99.90
2019-04-24T21:05:55.394Z,99.90
2019-04-24T21:08:42.921Z,99.90
2019-04-24T21:11:11.520Z,99.90
2019-04-24T21:13:41.785Z,99.90
2019-04-24T21:16:10.261Z,99.90
2019-04-24T21:18:38.754Z,99.90
2019-04-24T21:21:07.249Z,99.90
2019-04-24T21:23:35.775Z,99.90
2019-04-24T21:26:04.808Z,99.90
2019-04-24T21:28:35.971Z,99.90
2019-04-24T21:31:04.429Z,99.90
2019-04-24T21:33:34.550Z,99.90
2019-04-24T21:36:03.359Z,99.90
2019-04-24T21:38:33.022Z,99.90
2019-04-24T21:41:01.937Z,99.90
2019-04-24T21:43:32.864Z,99.90
2019-04-24T21:46:00.543Z,99.90
2019-04-24T21:48:31.998Z,99.90
2019-04-24T21:51:01.716Z,99.90
2019-04-24T21:53:32.229Z,99.90
2019-04-24T21:56:00.367Z,99.90
2019-04-24T21:58:29.152Z,99.90
2019-04-24T22:01:02.050Z,99.90
2019-04-24T22:03:39.041Z,99.90
2019-04-24T22:06:17.799Z,99.90
2019-04-24T22:08:46.629Z,99.90
2019-04-24T22:11:15.763Z,99.90
2019-04-24T22:13:44.779Z,99.90
2019-04-24T22:16:14.960Z,99.90
2019-04-24T22:18:43.679Z,99.90
2019-04-24T22:21:17.113Z,99.90
2019-04-24T22:23:47.489Z,99.90
2019-04-24T22:26:21.223Z,99.90
2019-04-24T22:28:50.055Z,99.90
2019-04-24T22:31:23.277Z,99.90
2019-04-24T22:33:53.765Z,99.90
2019-04-24T22:36:22.645Z,99.90
2019-04-24T22:38:59.033Z,99.90
2019-04-24T22:41:27.883Z,99.90
2019-04-24T22:43:56.402Z,99.90
2019-04-24T22:46:25.259Z,99.90
2019-04-24T22:48:54.038Z,99.90
2019-04-24T22:51:23.665Z,99.90
2019-04-24T22:53:52.552Z,99.90
2019-04-24T22:56:21.014Z,99.90
2019-04-24T22:58:49.829Z,99.90
2019-04-24T23:01:18.318Z,99.90
2019-04-24T23:03:47.245Z,99.90
2019-04-24T23:06:15.694Z,99.90
2019-04-24T23:08:44.213Z,99.90
2019-04-24T23:11:12.936Z,99.90
2019-04-24T23:13:43.187Z,99.90
2019-04-24T23:16:12.979Z,99.90
2019-04-24T23:18:42.905Z,99.90
2019-04-24T23:21:27.692Z,99.90
2019-04-24T23:24:06.129Z,99.90
2019-04-24T23:26:42.566Z,99.90
2019-04-24T23:29:13.258Z,99.90
2019-04-24T23:31:46.653Z,99.90
2019-04-24T23:34:16.768Z,99.90
2019-04-24T23:36:45.219Z,99.90
2019-04-24T23:39:14.554Z,99.90
2019-04-24T23:41:43.036Z,99.90
2019-04-24T23:44:12.262Z,99.90
2019-04-24T23:46:43.199Z,99.90
2019-04-24T23:49:12.500Z,99.90
2019-04-24T23:51:41.483Z,99.90
2019-04-24T23:54:09.990Z,99.90
2019-04-24T23:56:38.452Z,99.90
2019-04-24T23:59:08.768Z,99.90
